sensor_id;sensor_type;location;lat;lon;timestamp;P1;durP1;ratioP1;P2;durP2;ratioP2
74245;SDS011;62601;51.044;13.788;2023-05-29T00:02:04;8.40;;;7.40;;
74245;SDS011;62601;51.044;13.788;2023-05-29T00:04:25;8.67;;;7.87;;
74245;SDS011;62601;51.044;13.788;2023-05-29T00:06:47;8.57;;;7.77;;
74245;SDS011;62601;51.044;13.788;2023-05-29T00:09:08;7.60;;;6.90;;
74245;SDS011;62601;51.044;13.788;2023-05-29T00:11:28;9.30;;;8.10;;
74245;SDS011;62601;51.044;13.788;2023-05-29T00:13:49;8.77;;;7.47;;
74245;SDS011;62601;51.044;13.788;2023-05-29T00:16:09;9.20;;;7.63;;
74245;SDS011;62601;51.044;13.788;2023-05-29T00:18:30;9.23;;;7.47;;
74245;SDS011;62601;51.044;13.788;2023-05-29T00:20:51;8.80;;;7.90;;
74245;SDS011;62601;51.044;13.788;2023-05-29T00:23:11;10.80;;;8.20;;
74245;SDS011;62601;51.044;13.788;2023-05-29T00:25:31;10.90;;;7.50;;
74245;SDS011;62601;51.044;13.788;2023-05-29T00:27:53;8.10;;;7.30;;
74245;SDS011;62601;51.044;13.788;2023-05-29T00:30:14;9.00;;;6.60;;
74245;SDS011;62601;51.044;13.788;2023-05-29T00:32:35;8.53;;;7.70;;
74245;SDS011;62601;51.044;13.788;2023-05-29T00:34:57;11.97;;;7.37;;
74245;SDS011;62601;51.044;13.788;2023-05-29T00:37:18;7.67;;;7.00;;
74245;SDS011;62601;51.044;13.788;2023-05-29T00:39:40;9.80;;;7.60;;
74245;SDS011;62601;51.044;13.788;2023-05-29T00:42:01;8.73;;;7.60;;
74245;SDS011;62601;51.044;13.788;2023-05-29T00:44:24;8.17;;;7.03;;
74245;SDS011;62601;51.044;13.788;2023-05-29T00:46:49;7.50;;;6.70;;
74245;SDS011;62601;51.044;13.788;2023-05-29T00:49:10;8.07;;;6.80;;
74245;SDS011;62601;51.044;13.788;2023-05-29T00:51:32;8.30;;;6.40;;
74245;SDS011;62601;51.044;13.788;2023-05-29T00:53:54;7.23;;;6.53;;
74245;SDS011;62601;51.044;13.788;2023-05-29T00:56:16;8.10;;;6.90;;
74245;SDS011;62601;51.044;13.788;2023-05-29T00:58:37;8.77;;;6.90;;
74245;SDS011;62601;51.044;13.788;2023-05-29T01:00:59;7.87;;;6.60;;
74245;SDS011;62601;51.044;13.788;2023-05-29T01:03:20;7.13;;;6.43;;
74245;SDS011;62601;51.044;13.788;2023-05-29T01:05:42;8.97;;;6.53;;
74245;SDS011;62601;51.044;13.788;2023-05-29T01:08:03;7.30;;;6.00;;
74245;SDS011;62601;51.044;13.788;2023-05-29T01:10:25;6.87;;;5.77;;
74245;SDS011;62601;51.044;13.788;2023-05-29T01:12:49;8.03;;;6.47;;
74245;SDS011;62601;51.044;13.788;2023-05-29T01:25:57;7.90;;;5.53;;
74245;SDS011;62601;51.044;13.788;2023-05-29T01:28:19;6.20;;;5.60;;
74245;SDS011;62601;51.044;13.788;2023-05-29T01:30:41;6.90;;;6.20;;
74245;SDS011;62601;51.044;13.788;2023-05-29T01:33:03;8.03;;;6.67;;
74245;SDS011;62601;51.044;13.788;2023-05-29T01:35:25;7.35;;;6.13;;
74245;SDS011;62601;51.044;13.788;2023-05-29T01:37:45;5.90;;;5.30;;
74245;SDS011;62601;51.044;13.788;2023-05-29T01:40:06;8.87;;;5.80;;
74245;SDS011;62601;51.044;13.788;2023-05-29T01:42:28;5.90;;;5.30;;
74245;SDS011;62601;51.044;13.788;2023-05-29T01:44:50;7.13;;;5.57;;
74245;SDS011;62601;51.044;13.788;2023-05-29T01:47:11;5.70;;;5.17;;
74245;SDS011;62601;51.044;13.788;2023-05-29T01:49:33;5.30;;;4.60;;
74245;SDS011;62601;51.044;13.788;2023-05-29T01:51:55;7.40;;;5.28;;
74245;SDS011;62601;51.044;13.788;2023-05-29T01:54:16;6.00;;;5.40;;
74245;SDS011;62601;51.044;13.788;2023-05-29T01:56:37;5.53;;;5.03;;
74245;SDS011;62601;51.044;13.788;2023-05-29T01:59:00;6.20;;;5.60;;
74245;SDS011;62601;51.044;13.788;2023-05-29T02:01:21;6.75;;;5.60;;
74245;SDS011;62601;51.044;13.788;2023-05-29T02:03:43;5.90;;;5.30;;
74245;SDS011;62601;51.044;13.788;2023-05-29T02:06:05;5.97;;;5.22;;
74245;SDS011;62601;51.044;13.788;2023-05-29T02:08:26;6.40;;;5.20;;
74245;SDS011;62601;51.044;13.788;2023-05-29T02:10:48;5.28;;;4.60;;
74245;SDS011;62601;51.044;13.788;2023-05-29T02:13:09;9.27;;;5.05;;
74245;SDS011;62601;51.044;13.788;2023-05-29T02:15:30;6.83;;;5.20;;
74245;SDS011;62601;51.044;13.788;2023-05-29T02:17:52;5.93;;;5.33;;
74245;SDS011;62601;51.044;13.788;2023-05-29T02:20:13;6.70;;;5.30;;
74245;SDS011;62601;51.044;13.788;2023-05-29T02:22:34;6.15;;;5.50;;
74245;SDS011;62601;51.044;13.788;2023-05-29T02:24:56;7.63;;;5.40;;
74245;SDS011;62601;51.044;13.788;2023-05-29T02:27:17;8.80;;;5.20;;
74245;SDS011;62601;51.044;13.788;2023-05-29T02:29:39;5.53;;;4.90;;
74245;SDS011;62601;51.044;13.788;2023-05-29T02:32:00;5.53;;;5.00;;
74245;SDS011;62601;51.044;13.788;2023-05-29T02:34:21;6.63;;;5.18;;
74245;SDS011;62601;51.044;13.788;2023-05-29T02:36:43;6.03;;;5.25;;
74245;SDS011;62601;51.044;13.788;2023-05-29T02:39:04;5.70;;;4.25;;
74245;SDS011;62601;51.044;13.788;2023-05-29T02:41:26;8.23;;;5.10;;
74245;SDS011;62601;51.044;13.788;2023-05-29T02:43:47;6.63;;;5.18;;
74245;SDS011;62601;51.044;13.788;2023-05-29T02:46:08;5.35;;;4.85;;
74245;SDS011;62601;51.044;13.788;2023-05-29T02:48:29;8.60;;;5.50;;
74245;SDS011;62601;51.044;13.788;2023-05-29T02:50:51;6.30;;;5.20;;
74245;SDS011;62601;51.044;13.788;2023-05-29T02:53:12;6.07;;;4.78;;
74245;SDS011;62601;51.044;13.788;2023-05-29T02:55:33;5.47;;;4.80;;
74245;SDS011;62601;51.044;13.788;2023-05-29T02:57:55;6.55;;;5.00;;
74245;SDS011;62601;51.044;13.788;2023-05-29T03:00:16;7.57;;;4.63;;
74245;SDS011;62601;51.044;13.788;2023-05-29T03:02:38;7.07;;;5.20;;
74245;SDS011;62601;51.044;13.788;2023-05-29T03:04:59;7.40;;;5.25;;
74245;SDS011;62601;51.044;13.788;2023-05-29T03:07:21;8.40;;;5.25;;
74245;SDS011;62601;51.044;13.788;2023-05-29T03:09:42;6.90;;;5.68;;
74245;SDS011;62601;51.044;13.788;2023-05-29T03:12:03;7.65;;;5.25;;
74245;SDS011;62601;51.044;13.788;2023-05-29T03:14:25;6.93;;;4.88;;
74245;SDS011;62601;51.044;13.788;2023-05-29T03:16:46;6.85;;;6.10;;
74245;SDS011;62601;51.044;13.788;2023-05-29T03:19:08;6.07;;;5.15;;
74245;SDS011;62601;51.044;13.788;2023-05-29T03:21:28;6.18;;;4.97;;
74245;SDS011;62601;51.044;13.788;2023-05-29T03:23:49;5.60;;;4.80;;
74245;SDS011;62601;51.044;13.788;2023-05-29T03:26:11;6.00;;;5.10;;
74245;SDS011;62601;51.044;13.788;2023-05-29T03:28:32;6.85;;;5.68;;
74245;SDS011;62601;51.044;13.788;2023-05-29T03:30:53;6.72;;;5.10;;
74245;SDS011;62601;51.044;13.788;2023-05-29T03:33:15;6.97;;;5.25;;
74245;SDS011;62601;51.044;13.788;2023-05-29T03:35:36;6.40;;;4.90;;
74245;SDS011;62601;51.044;13.788;2023-05-29T03:37:57;8.52;;;5.20;;
74245;SDS011;62601;51.044;13.788;2023-05-29T03:40:19;7.78;;;4.97;;
74245;SDS011;62601;51.044;13.788;2023-05-29T03:42:40;5.82;;;5.28;;
74245;SDS011;62601;51.044;13.788;2023-05-29T03:45:02;6.80;;;4.47;;
74245;SDS011;62601;51.044;13.788;2023-05-29T03:47:23;5.97;;;4.90;;
74245;SDS011;62601;51.044;13.788;2023-05-29T03:49:44;5.78;;;5.15;;
74245;SDS011;62601;51.044;13.788;2023-05-29T03:52:06;7.93;;;5.30;;
74245;SDS011;62601;51.044;13.788;2023-05-29T03:54:27;6.22;;;5.05;;
74245;SDS011;62601;51.044;13.788;2023-05-29T03:56:49;6.82;;;4.95;;
74245;SDS011;62601;51.044;13.788;2023-05-29T03:59:10;7.63;;;5.20;;
74245;SDS011;62601;51.044;13.788;2023-05-29T04:01:31;5.35;;;4.85;;
74245;SDS011;62601;51.044;13.788;2023-05-29T04:03:53;7.15;;;5.80;;
74245;SDS011;62601;51.044;13.788;2023-05-29T04:06:15;7.35;;;5.70;;
74245;SDS011;62601;51.044;13.788;2023-05-29T04:08:36;6.50;;;4.93;;
74245;SDS011;62601;51.044;13.788;2023-05-29T04:10:57;9.23;;;5.57;;
74245;SDS011;62601;51.044;13.788;2023-05-29T04:13:19;7.13;;;4.90;;
74245;SDS011;62601;51.044;13.788;2023-05-29T04:15:41;8.70;;;5.72;;
74245;SDS011;62601;51.044;13.788;2023-05-29T04:18:03;7.15;;;5.93;;
74245;SDS011;62601;51.044;13.788;2023-05-29T04:20:24;7.65;;;5.95;;
74245;SDS011;62601;51.044;13.788;2023-05-29T04:22:45;7.72;;;5.28;;
74245;SDS011;62601;51.044;13.788;2023-05-29T04:25:07;8.00;;;5.50;;
74245;SDS011;62601;51.044;13.788;2023-05-29T04:27:29;6.75;;;5.20;;
74245;SDS011;62601;51.044;13.788;2023-05-29T04:29:50;5.90;;;4.97;;
74245;SDS011;62601;51.044;13.788;2023-05-29T04:32:12;6.43;;;5.22;;
74245;SDS011;62601;51.044;13.788;2023-05-29T04:34:33;7.13;;;5.63;;
74245;SDS011;62601;51.044;13.788;2023-05-29T04:36:55;6.60;;;5.90;;
74245;SDS011;62601;51.044;13.788;2023-05-29T04:39:16;7.50;;;5.50;;
74245;SDS011;62601;51.044;13.788;2023-05-29T04:41:39;7.75;;;5.00;;
74245;SDS011;62601;51.044;13.788;2023-05-29T04:44:00;7.05;;;5.45;;
74245;SDS011;62601;51.044;13.788;2023-05-29T04:46:22;11.63;;;5.40;;
74245;SDS011;62601;51.044;13.788;2023-05-29T04:48:43;9.65;;;5.05;;
74245;SDS011;62601;51.044;13.788;2023-05-29T04:51:04;5.88;;;4.93;;
74245;SDS011;62601;51.044;13.788;2023-05-29T04:53:26;7.50;;;5.32;;
74245;SDS011;62601;51.044;13.788;2023-05-29T04:55:47;9.77;;;5.60;;
74245;SDS011;62601;51.044;13.788;2023-05-29T04:58:08;8.52;;;5.53;;
74245;SDS011;62601;51.044;13.788;2023-05-29T05:00:30;5.85;;;5.03;;
74245;SDS011;62601;51.044;13.788;2023-05-29T05:02:51;5.85;;;5.07;;
74245;SDS011;62601;51.044;13.788;2023-05-29T05:05:13;6.18;;;4.90;;
74245;SDS011;62601;51.044;13.788;2023-05-29T05:07:34;6.72;;;5.18;;
74245;SDS011;62601;51.044;13.788;2023-05-29T05:09:54;6.00;;;5.35;;
74245;SDS011;62601;51.044;13.788;2023-05-29T05:12:16;5.10;;;4.60;;
74245;SDS011;62601;51.044;13.788;2023-05-29T05:14:37;6.32;;;4.80;;
74245;SDS011;62601;51.044;13.788;2023-05-29T05:16:58;6.40;;;4.63;;
74245;SDS011;62601;51.044;13.788;2023-05-29T05:19:20;7.40;;;4.55;;
74245;SDS011;62601;51.044;13.788;2023-05-29T05:21:41;6.45;;;4.88;;
74245;SDS011;62601;51.044;13.788;2023-05-29T05:24:03;9.52;;;5.65;;
74245;SDS011;62601;51.044;13.788;2023-05-29T05:26:24;9.05;;;5.60;;
74245;SDS011;62601;51.044;13.788;2023-05-29T05:28:45;7.57;;;5.63;;
74245;SDS011;62601;51.044;13.788;2023-05-29T05:31:07;9.68;;;5.25;;
74245;SDS011;62601;51.044;13.788;2023-05-29T05:33:27;6.55;;;5.43;;
74245;SDS011;62601;51.044;13.788;2023-05-29T05:35:48;10.45;;;5.65;;
74245;SDS011;62601;51.044;13.788;2023-05-29T05:38:10;6.25;;;4.80;;
74245;SDS011;62601;51.044;13.788;2023-05-29T05:40:31;9.13;;;5.78;;
74245;SDS011;62601;51.044;13.788;2023-05-29T05:42:52;6.45;;;5.80;;
74245;SDS011;62601;51.044;13.788;2023-05-29T05:45:13;7.38;;;6.30;;
74245;SDS011;62601;51.044;13.788;2023-05-29T05:47:35;8.57;;;5.75;;
74245;SDS011;62601;51.044;13.788;2023-05-29T05:49:56;8.32;;;5.30;;
74245;SDS011;62601;51.044;13.788;2023-05-29T05:52:18;7.20;;;5.85;;
74245;SDS011;62601;51.044;13.788;2023-05-29T05:54:39;11.23;;;6.18;;
74245;SDS011;62601;51.044;13.788;2023-05-29T05:57:00;11.23;;;5.75;;
74245;SDS011;62601;51.044;13.788;2023-05-29T05:59:21;8.18;;;5.72;;
74245;SDS011;62601;51.044;13.788;2023-05-29T06:01:42;6.05;;;5.43;;
74245;SDS011;62601;51.044;13.788;2023-05-29T06:04:02;7.45;;;5.10;;
74245;SDS011;62601;51.044;13.788;2023-05-29T06:06:23;10.38;;;5.50;;
74245;SDS011;62601;51.044;13.788;2023-05-29T06:08:45;6.57;;;5.80;;
74245;SDS011;62601;51.044;13.788;2023-05-29T06:11:07;6.65;;;5.90;;
74245;SDS011;62601;51.044;13.788;2023-05-29T06:13:29;6.80;;;6.00;;
74245;SDS011;62601;51.044;13.788;2023-05-29T06:15:50;6.97;;;5.78;;
74245;SDS011;62601;51.044;13.788;2023-05-29T06:18:11;5.45;;;4.95;;
74245;SDS011;62601;51.044;13.788;2023-05-29T06:20:32;7.30;;;6.43;;
74245;SDS011;62601;51.044;13.788;2023-05-29T06:22:54;7.35;;;5.80;;
74245;SDS011;62601;51.044;13.788;2023-05-29T06:25:14;6.90;;;6.00;;
74245;SDS011;62601;51.044;13.788;2023-05-29T06:27:34;9.43;;;6.05;;
74245;SDS011;62601;51.044;13.788;2023-05-29T06:29:55;9.13;;;5.60;;
74245;SDS011;62601;51.044;13.788;2023-05-29T06:32:17;5.63;;;5.13;;
74245;SDS011;62601;51.044;13.788;2023-05-29T06:34:38;6.50;;;5.40;;
74245;SDS011;62601;51.044;13.788;2023-05-29T06:37:00;8.20;;;5.60;;
74245;SDS011;62601;51.044;13.788;2023-05-29T06:39:21;9.20;;;5.87;;
74245;SDS011;62601;51.044;13.788;2023-05-29T06:41:42;7.47;;;6.20;;
74245;SDS011;62601;51.044;13.788;2023-05-29T06:44:04;6.60;;;5.77;;
74245;SDS011;62601;51.044;13.788;2023-05-29T06:46:25;8.30;;;6.13;;
74245;SDS011;62601;51.044;13.788;2023-05-29T06:48:46;6.20;;;5.60;;
74245;SDS011;62601;51.044;13.788;2023-05-29T06:51:08;7.50;;;6.00;;
74245;SDS011;62601;51.044;13.788;2023-05-29T06:53:29;6.77;;;6.03;;
74245;SDS011;62601;51.044;13.788;2023-05-29T06:55:49;7.10;;;5.47;;
74245;SDS011;62601;51.044;13.788;2023-05-29T06:58:11;7.33;;;5.30;;
74245;SDS011;62601;51.044;13.788;2023-05-29T07:00:33;7.83;;;6.17;;
74245;SDS011;62601;51.044;13.788;2023-05-29T07:02:54;9.30;;;6.20;;
74245;SDS011;62601;51.044;13.788;2023-05-29T07:05:15;11.37;;;8.50;;
74245;SDS011;62601;51.044;13.788;2023-05-29T07:07:36;11.80;;;7.47;;
74245;SDS011;62601;51.044;13.788;2023-05-29T07:09:56;7.03;;;5.70;;
74245;SDS011;62601;51.044;13.788;2023-05-29T07:12:17;6.63;;;5.13;;
74245;SDS011;62601;51.044;13.788;2023-05-29T07:14:39;9.80;;;5.90;;
74245;SDS011;62601;51.044;13.788;2023-05-29T07:17:01;7.97;;;6.10;;
74245;SDS011;62601;51.044;13.788;2023-05-29T07:19:22;6.03;;;5.47;;
74245;SDS011;62601;51.044;13.788;2023-05-29T07:21:43;6.30;;;5.40;;
74245;SDS011;62601;51.044;13.788;2023-05-29T07:24:05;7.07;;;4.50;;
74245;SDS011;62601;51.044;13.788;2023-05-29T07:26:26;5.67;;;5.17;;
74245;SDS011;62601;51.044;13.788;2023-05-29T07:28:48;5.13;;;4.60;;
74245;SDS011;62601;51.044;13.788;2023-05-29T07:31:10;11.63;;;5.97;;
74245;SDS011;62601;51.044;13.788;2023-05-29T07:33:31;7.40;;;5.70;;
74245;SDS011;62601;51.044;13.788;2023-05-29T07:35:51;10.83;;;5.00;;
74245;SDS011;62601;51.044;13.788;2023-05-29T07:38:12;10.47;;;6.10;;
74245;SDS011;62601;51.044;13.788;2023-05-29T07:40:34;5.90;;;5.10;;
74245;SDS011;62601;51.044;13.788;2023-05-29T07:42:55;7.90;;;5.27;;
74245;SDS011;62601;51.044;13.788;2023-05-29T07:45:17;6.20;;;5.10;;
74245;SDS011;62601;51.044;13.788;2023-05-29T07:47:37;5.90;;;5.00;;
74245;SDS011;62601;51.044;13.788;2023-05-29T07:49:58;14.20;;;7.10;;
74245;SDS011;62601;51.044;13.788;2023-05-29T07:52:19;7.00;;;5.40;;
74245;SDS011;62601;51.044;13.788;2023-05-29T07:54:40;5.40;;;4.60;;
74245;SDS011;62601;51.044;13.788;2023-05-29T07:57:02;6.20;;;4.40;;
74245;SDS011;62601;51.044;13.788;2023-05-29T07:59:23;5.57;;;4.50;;
74245;SDS011;62601;51.044;13.788;2023-05-29T08:01:45;5.47;;;4.00;;
74245;SDS011;62601;51.044;13.788;2023-05-29T08:04:05;4.97;;;4.47;;
74245;SDS011;62601;51.044;13.788;2023-05-29T08:06:26;6.33;;;5.27;;
74245;SDS011;62601;51.044;13.788;2023-05-29T08:08:48;8.60;;;5.03;;
74245;SDS011;62601;51.044;13.788;2023-05-29T08:11:10;5.33;;;4.27;;
74245;SDS011;62601;51.044;13.788;2023-05-29T08:13:31;6.63;;;4.27;;
74245;SDS011;62601;51.044;13.788;2023-05-29T08:15:53;5.73;;;4.03;;
74245;SDS011;62601;51.044;13.788;2023-05-29T08:18:15;4.93;;;4.43;;
74245;SDS011;62601;51.044;13.788;2023-05-29T08:20:39;4.90;;;4.50;;
74245;SDS011;62601;51.044;13.788;2023-05-29T08:23:01;8.43;;;4.30;;
74245;SDS011;62601;51.044;13.788;2023-05-29T08:25:22;4.70;;;4.30;;
74245;SDS011;62601;51.044;13.788;2023-05-29T08:27:43;4.87;;;4.37;;
74245;SDS011;62601;51.044;13.788;2023-05-29T08:30:05;5.27;;;4.13;;
74245;SDS011;62601;51.044;13.788;2023-05-29T08:32:26;3.83;;;3.43;;
74245;SDS011;62601;51.044;13.788;2023-05-29T08:34:46;4.77;;;3.50;;
74245;SDS011;62601;51.044;13.788;2023-05-29T08:37:08;8.87;;;3.67;;
74245;SDS011;62601;51.044;13.788;2023-05-29T08:39:29;5.50;;;3.53;;
74245;SDS011;62601;51.044;13.788;2023-05-29T08:44:42;5.23;;;3.90;;
74245;SDS011;62601;51.044;13.788;2023-05-29T08:47:07;14.70;;;13.10;;
74245;SDS011;62601;51.044;13.788;2023-05-29T08:49:28;16.97;;;15.37;;
74245;SDS011;62601;51.044;13.788;2023-05-29T08:51:55;5.50;;;4.57;;
74245;SDS011;62601;51.044;13.788;2023-05-29T08:54:18;6.73;;;4.70;;
74245;SDS011;62601;51.044;13.788;2023-05-29T08:56:39;7.27;;;5.30;;
74245;SDS011;62601;51.044;13.788;2023-05-29T08:59:01;7.37;;;3.43;;
74245;SDS011;62601;51.044;13.788;2023-05-29T09:01:22;3.20;;;2.90;;
74245;SDS011;62601;51.044;13.788;2023-05-29T09:03:44;6.17;;;3.50;;
74245;SDS011;62601;51.044;13.788;2023-05-29T09:06:05;6.13;;;3.60;;
74245;SDS011;62601;51.044;13.788;2023-05-29T09:08:26;4.40;;;3.17;;
74245;SDS011;62601;51.044;13.788;2023-05-29T09:10:48;4.60;;;4.20;;
74245;SDS011;62601;51.044;13.788;2023-05-29T09:13:09;4.73;;;4.23;;
74245;SDS011;62601;51.044;13.788;2023-05-29T09:15:31;5.07;;;3.33;;
74245;SDS011;62601;51.044;13.788;2023-05-29T09:17:55;4.10;;;3.37;;
74245;SDS011;62601;51.044;13.788;2023-05-29T09:20:15;4.67;;;2.83;;
74245;SDS011;62601;51.044;13.788;2023-05-29T09:22:37;3.77;;;2.50;;
74245;SDS011;62601;51.044;13.788;2023-05-29T09:24:57;3.40;;;2.27;;
74245;SDS011;62601;51.044;13.788;2023-05-29T09:27:19;4.13;;;3.40;;
74245;SDS011;62601;51.044;13.788;2023-05-29T09:29:42;6.50;;;3.00;;
74245;SDS011;62601;51.044;13.788;2023-05-29T09:32:24;4.00;;;3.00;;
74245;SDS011;62601;51.044;13.788;2023-05-29T09:34:44;4.70;;;4.03;;
74245;SDS011;62601;51.044;13.788;2023-05-29T09:37:05;6.40;;;2.60;;
74245;SDS011;62601;51.044;13.788;2023-05-29T09:39:27;4.00;;;2.87;;
74245;SDS011;62601;51.044;13.788;2023-05-29T09:41:48;6.40;;;3.07;;
74245;SDS011;62601;51.044;13.788;2023-05-29T09:44:11;5.77;;;2.50;;
74245;SDS011;62601;51.044;13.788;2023-05-29T09:46:36;3.87;;;2.43;;
74245;SDS011;62601;51.044;13.788;2023-05-29T09:49:00;5.03;;;3.00;;
74245;SDS011;62601;51.044;13.788;2023-05-29T09:51:22;4.80;;;2.77;;
74245;SDS011;62601;51.044;13.788;2023-05-29T09:53:42;3.60;;;3.00;;
74245;SDS011;62601;51.044;13.788;2023-05-29T09:56:02;3.10;;;2.77;;
74245;SDS011;62601;51.044;13.788;2023-05-29T09:58:22;4.20;;;2.40;;
74245;SDS011;62601;51.044;13.788;2023-05-29T10:00:43;3.17;;;2.40;;
74245;SDS011;62601;51.044;13.788;2023-05-29T10:03:04;3.40;;;2.80;;
74245;SDS011;62601;51.044;13.788;2023-05-29T10:05:24;3.20;;;2.90;;
74245;SDS011;62601;51.044;13.788;2023-05-29T10:07:49;6.33;;;2.73;;
74245;SDS011;62601;51.044;13.788;2023-05-29T10:10:09;4.20;;;2.77;;
74245;SDS011;62601;51.044;13.788;2023-05-29T10:12:32;2.67;;;2.47;;
74245;SDS011;62601;51.044;13.788;2023-05-29T10:14:56;4.70;;;2.70;;
74245;SDS011;62601;51.044;13.788;2023-05-29T10:17:18;3.13;;;2.83;;
74245;SDS011;62601;51.044;13.788;2023-05-29T10:19:45;6.77;;;3.40;;
74245;SDS011;62601;51.044;13.788;2023-05-29T10:22:09;4.03;;;3.20;;
74245;SDS011;62601;51.044;13.788;2023-05-29T10:24:31;4.20;;;3.07;;
74245;SDS011;62601;51.044;13.788;2023-05-29T10:26:52;3.63;;;3.10;;
74245;SDS011;62601;51.044;13.788;2023-05-29T10:29:26;3.60;;;2.90;;
74245;SDS011;62601;51.044;13.788;2023-05-29T10:37:17;5.93;;;3.27;;
74245;SDS011;62601;51.044;13.788;2023-05-29T10:39:39;5.00;;;3.33;;
74245;SDS011;62601;51.044;13.788;2023-05-29T10:42:00;5.33;;;3.60;;
74245;SDS011;62601;51.044;13.788;2023-05-29T10:49:21;6.10;;;3.23;;
74245;SDS011;62601;51.044;13.788;2023-05-29T10:51:42;3.33;;;3.03;;
74245;SDS011;62601;51.044;13.788;2023-05-29T10:54:05;6.67;;;3.33;;
74245;SDS011;62601;51.044;13.788;2023-05-29T10:56:28;5.83;;;3.47;;
74245;SDS011;62601;51.044;13.788;2023-05-29T10:58:57;4.27;;;3.30;;
74245;SDS011;62601;51.044;13.788;2023-05-29T11:01:22;6.33;;;3.37;;
74245;SDS011;62601;51.044;13.788;2023-05-29T11:03:43;3.90;;;2.83;;
74245;SDS011;62601;51.044;13.788;2023-05-29T11:06:05;4.60;;;2.83;;
74245;SDS011;62601;51.044;13.788;2023-05-29T11:08:33;3.33;;;3.03;;
74245;SDS011;62601;51.044;13.788;2023-05-29T11:10:57;7.00;;;5.60;;
74245;SDS011;62601;51.044;13.788;2023-05-29T11:13:52;4.10;;;2.70;;
74245;SDS011;62601;51.044;13.788;2023-05-29T11:18:47;3.10;;;2.80;;
74245;SDS011;62601;51.044;13.788;2023-05-29T11:21:12;2.90;;;2.70;;
74245;SDS011;62601;51.044;13.788;2023-05-29T11:23:39;4.97;;;3.20;;
74245;SDS011;62601;51.044;13.788;2023-05-29T11:26:02;8.33;;;3.47;;
74245;SDS011;62601;51.044;13.788;2023-05-29T11:28:24;7.83;;;3.33;;
74245;SDS011;62601;51.044;13.788;2023-05-29T11:30:46;4.17;;;3.20;;
74245;SDS011;62601;51.044;13.788;2023-05-29T11:33:07;4.70;;;3.70;;
74245;SDS011;62601;51.044;13.788;2023-05-29T11:35:28;3.33;;;3.03;;
74245;SDS011;62601;51.044;13.788;2023-05-29T11:37:51;3.30;;;3.00;;
74245;SDS011;62601;51.044;13.788;2023-05-29T11:40:12;5.07;;;3.13;;
74245;SDS011;62601;51.044;13.788;2023-05-29T11:42:34;4.53;;;3.10;;
74245;SDS011;62601;51.044;13.788;2023-05-29T11:45:08;6.37;;;2.73;;
74245;SDS011;62601;51.044;13.788;2023-05-29T11:47:30;5.23;;;3.33;;
74245;SDS011;62601;51.044;13.788;2023-05-29T11:49:51;3.60;;;3.27;;
74245;SDS011;62601;51.044;13.788;2023-05-29T11:52:13;6.33;;;3.17;;
74245;SDS011;62601;51.044;13.788;2023-05-29T11:54:34;5.80;;;3.10;;
74245;SDS011;62601;51.044;13.788;2023-05-29T11:56:56;2.83;;;2.63;;
74245;SDS011;62601;51.044;13.788;2023-05-29T11:59:17;3.23;;;2.80;;
74245;SDS011;62601;51.044;13.788;2023-05-29T12:01:39;4.93;;;2.83;;
74245;SDS011;62601;51.044;13.788;2023-05-29T12:04:01;4.40;;;3.40;;
74245;SDS011;62601;51.044;13.788;2023-05-29T12:06:35;4.50;;;3.17;;
74245;SDS011;62601;51.044;13.788;2023-05-29T12:08:56;4.30;;;3.20;;
74245;SDS011;62601;51.044;13.788;2023-05-29T12:11:22;4.00;;;3.13;;
74245;SDS011;62601;51.044;13.788;2023-05-29T12:13:44;3.80;;;3.40;;
74245;SDS011;62601;51.044;13.788;2023-05-29T12:16:05;4.40;;;3.20;;
74245;SDS011;62601;51.044;13.788;2023-05-29T12:18:27;3.80;;;2.77;;
74245;SDS011;62601;51.044;13.788;2023-05-29T12:20:49;5.40;;;3.30;;
74245;SDS011;62601;51.044;13.788;2023-05-29T12:23:11;4.83;;;3.27;;
74245;SDS011;62601;51.044;13.788;2023-05-29T12:25:33;4.43;;;3.00;;
74245;SDS011;62601;51.044;13.788;2023-05-29T12:27:58;3.63;;;3.33;;
74245;SDS011;62601;51.044;13.788;2023-05-29T12:30:21;4.70;;;3.30;;
74245;SDS011;62601;51.044;13.788;2023-05-29T12:32:43;3.53;;;3.23;;
74245;SDS011;62601;51.044;13.788;2023-05-29T12:37:31;3.37;;;3.07;;
74245;SDS011;62601;51.044;13.788;2023-05-29T12:42:31;3.83;;;3.00;;
74245;SDS011;62601;51.044;13.788;2023-05-29T12:44:53;4.70;;;3.07;;
74245;SDS011;62601;51.044;13.788;2023-05-29T12:47:23;3.60;;;3.30;;
74245;SDS011;62601;51.044;13.788;2023-05-29T12:49:44;5.50;;;3.20;;
74245;SDS011;62601;51.044;13.788;2023-05-29T12:52:08;4.67;;;3.43;;
74245;SDS011;62601;51.044;13.788;2023-05-29T12:54:30;3.77;;;3.37;;
74245;SDS011;62601;51.044;13.788;2023-05-29T12:56:50;5.17;;;4.77;;
74245;SDS011;62601;51.044;13.788;2023-05-29T12:59:11;4.27;;;3.30;;
74245;SDS011;62601;51.044;13.788;2023-05-29T13:01:33;3.30;;;3.00;;
74245;SDS011;62601;51.044;13.788;2023-05-29T13:03:54;4.47;;;3.23;;
74245;SDS011;62601;51.044;13.788;2023-05-29T13:06:19;3.90;;;3.00;;
74245;SDS011;62601;51.044;13.788;2023-05-29T13:08:40;4.80;;;3.80;;
74245;SDS011;62601;51.044;13.788;2023-05-29T13:11:02;5.07;;;3.30;;
74245;SDS011;62601;51.044;13.788;2023-05-29T13:13:26;3.67;;;3.30;;
74245;SDS011;62601;51.044;13.788;2023-05-29T13:15:47;4.00;;;3.30;;
74245;SDS011;62601;51.044;13.788;2023-05-29T13:18:08;4.30;;;3.77;;
74245;SDS011;62601;51.044;13.788;2023-05-29T13:20:29;4.87;;;3.30;;
74245;SDS011;62601;51.044;13.788;2023-05-29T13:22:51;5.00;;;3.77;;
74245;SDS011;62601;51.044;13.788;2023-05-29T13:25:13;3.90;;;3.33;;
74245;SDS011;62601;51.044;13.788;2023-05-29T13:27:35;3.57;;;3.27;;
74245;SDS011;62601;51.044;13.788;2023-05-29T13:29:57;8.67;;;3.47;;
74245;SDS011;62601;51.044;13.788;2023-05-29T13:32:18;4.90;;;3.33;;
74245;SDS011;62601;51.044;13.788;2023-05-29T13:34:39;4.03;;;2.93;;
74245;SDS011;62601;51.044;13.788;2023-05-29T13:37:01;3.80;;;3.50;;
74245;SDS011;62601;51.044;13.788;2023-05-29T13:39:22;4.47;;;3.20;;
74245;SDS011;62601;51.044;13.788;2023-05-29T13:41:43;4.50;;;3.13;;
74245;SDS011;62601;51.044;13.788;2023-05-29T13:44:05;3.50;;;3.20;;
74245;SDS011;62601;51.044;13.788;2023-05-29T13:46:25;3.50;;;3.10;;
74245;SDS011;62601;51.044;13.788;2023-05-29T13:48:46;4.60;;;3.70;;
74245;SDS011;62601;51.044;13.788;2023-05-29T13:51:08;5.77;;;5.13;;
74245;SDS011;62601;51.044;13.788;2023-05-29T13:53:29;4.47;;;3.97;;
74245;SDS011;62601;51.044;13.788;2023-05-29T13:55:50;5.90;;;4.30;;
74245;SDS011;62601;51.044;13.788;2023-05-29T13:58:12;5.80;;;4.23;;
74245;SDS011;62601;51.044;13.788;2023-05-29T14:00:33;5.93;;;3.80;;
74245;SDS011;62601;51.044;13.788;2023-05-29T14:02:54;3.70;;;3.40;;
74245;SDS011;62601;51.044;13.788;2023-05-29T14:05:15;4.73;;;4.30;;
74245;SDS011;62601;51.044;13.788;2023-05-29T14:07:36;5.53;;;4.40;;
74245;SDS011;62601;51.044;13.788;2023-05-29T14:09:56;7.67;;;5.03;;
74245;SDS011;62601;51.044;13.788;2023-05-29T14:12:18;7.40;;;6.80;;
74245;SDS011;62601;51.044;13.788;2023-05-29T14:14:42;4.80;;;4.40;;
74245;SDS011;62601;51.044;13.788;2023-05-29T14:17:03;6.70;;;4.50;;
74245;SDS011;62601;51.044;13.788;2023-05-29T14:19:25;4.77;;;3.73;;
74245;SDS011;62601;51.044;13.788;2023-05-29T14:21:47;7.63;;;6.93;;
74245;SDS011;62601;51.044;13.788;2023-05-29T14:24:10;6.20;;;4.13;;
74245;SDS011;62601;51.044;13.788;2023-05-29T14:26:31;5.87;;;4.10;;
74245;SDS011;62601;51.044;13.788;2023-05-29T14:28:53;5.03;;;4.43;;
74245;SDS011;62601;51.044;13.788;2023-05-29T14:31:13;6.10;;;5.50;;
74245;SDS011;62601;51.044;13.788;2023-05-29T14:33:34;9.30;;;6.50;;